sensor_id;sensor_type;location;lat;lon;timestamp;pressure;altitude;pressure_sealevel;temperature;humidity
49827;BME280;35715;51.570;6.036;2023-05-21T00:00:41;101702.88;;;16.19;68.12
49827;BME280;35715;51.570;6.036;2023-05-21T00:03:07;101702.78;;;16.17;68.12
49827;BME280;35715;51.570;6.036;2023-05-21T00:05:40;101694.16;;;16.18;68.12
49827;BME280;35715;51.570;6.036;2023-05-21T00:08:06;101694.06;;;16.17;67.85
49827;BME280;35715;51.570;6.036;2023-05-21T00:10:31;101689.59;;;16.14;68.04
49827;BME280;35715;51.570;6.036;2023-05-21T00:12:58;101689.78;;;16.17;67.44
49827;BME280;35715;51.570;6.036;2023-05-21T00:15:23;101688.06;;;16.18;67.49
49827;BME280;35715;51.570;6.036;2023-05-21T00:17:48;101682.50;;;16.11;67.72
49827;BME280;35715;51.570;6.036;2023-05-21T00:20:14;101680.50;;;16.07;67.90
49827;BME280;35715;51.570;6.036;2023-05-21T00:22:41;101666.50;;;16.05;68.33
49827;BME280;35715;51.570;6.036;2023-05-21T00:25:07;101664.00;;;16.07;68.02
49827;BME280;35715;51.570;6.036;2023-05-21T00:27:32;101671.53;;;16.02;67.83
49827;BME280;35715;51.570;6.036;2023-05-21T00:29:58;101665.31;;;16.00;68.05
49827;BME280;35715;51.570;6.036;2023-05-21T00:32:23;101662.38;;;15.94;68.43
49827;BME280;35715;51.570;6.036;2023-05-21T00:34:49;101660.59;;;15.93;68.16
49827;BME280;35715;51.570;6.036;2023-05-21T00:37:14;101655.91;;;15.87;68.36
49827;BME280;35715;51.570;6.036;2023-05-21T00:39:40;101650.53;;;15.84;68.39
49827;BME280;35715;51.570;6.036;2023-05-21T00:42:06;101651.94;;;15.79;68.56
49827;BME280;35715;51.570;6.036;2023-05-21T00:44:31;101654.44;;;15.77;69.04
49827;BME280;35715;51.570;6.036;2023-05-21T00:47:00;101655.16;;;15.75;69.56
49827;BME280;35715;51.570;6.036;2023-05-21T00:49:26;101648.84;;;15.71;69.50
49827;BME280;35715;51.570;6.036;2023-05-21T00:51:52;101649.78;;;15.72;69.58
49827;BME280;35715;51.570;6.036;2023-05-21T00:54:19;101645.28;;;15.69;69.65
49827;BME280;35715;51.570;6.036;2023-05-21T00:56:46;101645.28;;;15.69;69.71
49827;BME280;35715;51.570;6.036;2023-05-21T00:59:13;101642.41;;;15.65;69.80
49827;BME280;35715;51.570;6.036;2023-05-21T01:01:41;101637.09;;;15.63;70.05
49827;BME280;35715;51.570;6.036;2023-05-21T01:04:07;101645.59;;;15.60;70.00
49827;BME280;35715;51.570;6.036;2023-05-21T01:06:33;101637.53;;;15.56;69.85
49827;BME280;35715;51.570;6.036;2023-05-21T01:08:59;101632.16;;;15.53;70.16
49827;BME280;35715;51.570;6.036;2023-05-21T01:11:36;101642.47;;;15.51;70.24
49827;BME280;35715;51.570;6.036;2023-05-21T01:14:02;101639.06;;;15.52;70.54
49827;BME280;35715;51.570;6.036;2023-05-21T01:16:27;101640.13;;;15.56;70.85
49827;BME280;35715;51.570;6.036;2023-05-21T01:18:53;101631.34;;;15.54;70.87
49827;BME280;35715;51.570;6.036;2023-05-21T01:21:20;101640.13;;;15.56;71.20
49827;BME280;35715;51.570;6.036;2023-05-21T01:23:48;101636.47;;;15.52;70.81
49827;BME280;35715;51.570;6.036;2023-05-21T01:26:13;101633.84;;;15.52;71.02
49827;BME280;35715;51.570;6.036;2023-05-21T01:28:39;101629.53;;;15.53;71.85
49827;BME280;35715;51.570;6.036;2023-05-21T01:34:10;101637.88;;;15.47;71.24
49827;BME280;35715;51.570;6.036;2023-05-21T01:36:40;101628.00;;;15.41;71.80
49827;BME280;35715;51.570;6.036;2023-05-21T01:39:08;101633.28;;;15.28;72.57
49827;BME280;35715;51.570;6.036;2023-05-21T01:41:37;101634.63;;;15.36;72.31
49827;BME280;35715;51.570;6.036;2023-05-21T01:44:07;101639.13;;;15.39;72.64
49827;BME280;35715;51.570;6.036;2023-05-21T01:46:34;101637.41;;;15.39;72.73
49827;BME280;35715;51.570;6.036;2023-05-21T01:49:01;101635.63;;;15.38;73.30
49827;BME280;35715;51.570;6.036;2023-05-21T01:51:27;101639.13;;;15.39;73.18
49827;BME280;35715;51.570;6.036;2023-05-21T01:53:52;101627.75;;;15.37;73.05
49827;BME280;35715;51.570;6.036;2023-05-21T01:56:18;101629.41;;;15.36;73.32
49827;BME280;35715;51.570;6.036;2023-05-21T01:58:43;101634.63;;;15.36;73.28
49827;BME280;35715;51.570;6.036;2023-05-21T02:01:08;101627.47;;;15.32;73.03
49827;BME280;35715;51.570;6.036;2023-05-21T02:03:34;101631.66;;;15.30;73.33
49827;BME280;35715;51.570;6.036;2023-05-21T02:06:00;101630.66;;;15.28;73.40
49827;BME280;35715;51.570;6.036;2023-05-21T02:08:25;101628.78;;;15.25;74.12
49827;BME280;35715;51.570;6.036;2023-05-21T02:10:52;101625.19;;;15.23;73.54
49827;BME280;35715;51.570;6.036;2023-05-21T02:13:17;101629.38;;;15.21;74.16
49827;BME280;35715;51.570;6.036;2023-05-21T02:15:46;101624.09;;;15.20;73.83
49827;BME280;35715;51.570;6.036;2023-05-21T02:18:12;101620.69;;;15.21;73.70
49827;BME280;35715;51.570;6.036;2023-05-21T02:20:41;101622.31;;;15.19;73.13
49827;BME280;35715;51.570;6.036;2023-05-21T02:23:08;101627.41;;;15.17;73.11
49827;BME280;35715;51.570;6.036;2023-05-21T02:25:33;101620.31;;;15.15;73.36
49827;BME280;35715;51.570;6.036;2023-05-21T02:27:59;101616.84;;;15.14;73.42
49827;BME280;35715;51.570;6.036;2023-05-21T02:30:25;101620.31;;;15.15;74.08
49827;BME280;35715;51.570;6.036;2023-05-21T02:32:50;101620.22;;;15.13;74.35
49827;BME280;35715;51.570;6.036;2023-05-21T02:35:16;101618.31;;;15.11;74.48
49827;BME280;35715;51.570;6.036;2023-05-21T02:37:41;101615.53;;;15.07;74.04
49827;BME280;35715;51.570;6.036;2023-05-21T02:40:08;101615.34;;;15.04;74.34
49827;BME280;35715;51.570;6.036;2023-05-21T02:42:35;101616.97;;;15.02;74.10
49827;BME280;35715;51.570;6.036;2023-05-21T02:45:01;101606.47;;;15.01;74.42
49827;BME280;35715;51.570;6.036;2023-05-21T02:47:26;101605.56;;;15.00;74.40
49827;BME280;35715;51.570;6.036;2023-05-21T02:49:52;101602.78;;;14.97;74.49
49827;BME280;35715;51.570;6.036;2023-05-21T02:52:19;101606.97;;;14.95;74.81
49827;BME280;35715;51.570;6.036;2023-05-21T02:54:46;101609.59;;;14.95;74.96
49827;BME280;35715;51.570;6.036;2023-05-21T02:57:13;101608.59;;;14.93;75.10
49827;BME280;35715;51.570;6.036;2023-05-21T02:59:40;101606.78;;;14.92;75.62
49827;BME280;35715;51.570;6.036;2023-05-21T03:02:05;101604.19;;;14.92;75.04
49827;BME280;35715;51.570;6.036;2023-05-21T03:04:31;101598.91;;;14.90;74.81
49827;BME280;35715;51.570;6.036;2023-05-21T03:06:57;101596.31;;;14.90;75.06
49827;BME280;35715;51.570;6.036;2023-05-21T03:09:26;101594.41;;;14.88;75.29
49827;BME280;35715;51.570;6.036;2023-05-21T03:11:51;101600.13;;;14.82;74.61
49827;BME280;35715;51.570;6.036;2023-05-21T03:14:17;101595.44;;;14.77;74.76
49827;BME280;35715;51.570;6.036;2023-05-21T03:16:42;101607.31;;;14.73;75.12
49827;BME280;35715;51.570;6.036;2023-05-21T03:19:09;101595.25;;;14.73;75.02
49827;BME280;35715;51.570;6.036;2023-05-21T03:21:35;101598.47;;;14.69;74.71
49827;BME280;35715;51.570;6.036;2023-05-21T03:24:02;101594.69;;;14.64;75.16
49827;BME280;35715;51.570;6.036;2023-05-21T03:26:27;101589.41;;;14.63;75.45
49827;BME280;35715;51.570;6.036;2023-05-21T03:28:54;101583.78;;;14.57;75.62
49827;BME280;35715;51.570;6.036;2023-05-21T03:31:20;101597.38;;;14.52;75.97
49827;BME280;35715;51.570;6.036;2023-05-21T03:33:46;101592.84;;;14.50;76.29
49827;BME280;35715;51.570;6.036;2023-05-21T03:36:11;101587.84;;;14.53;76.16
49827;BME280;35715;51.570;6.036;2023-05-21T03:38:36;101589.66;;;14.54;76.23
49827;BME280;35715;51.570;6.036;2023-05-21T03:41:02;101588.88;;;14.55;76.19
49827;BME280;35715;51.570;6.036;2023-05-21T03:43:27;101593.34;;;14.58;76.41
49827;BME280;35715;51.570;6.036;2023-05-21T03:45:53;101595.25;;;14.60;76.59
49827;BME280;35715;51.570;6.036;2023-05-21T03:48:19;101590.28;;;14.63;76.28
49827;BME280;35715;51.570;6.036;2023-05-21T03:50:44;101586.78;;;14.63;76.14
49827;BME280;35715;51.570;6.036;2023-05-21T03:53:11;101594.69;;;14.64;76.49
49827;BME280;35715;51.570;6.036;2023-05-21T03:55:36;101583.28;;;14.62;76.90
49827;BME280;35715;51.570;6.036;2023-05-21T03:58:02;101588.66;;;14.65;77.12
49827;BME280;35715;51.570;6.036;2023-05-21T04:00:27;101595.66;;;14.66;77.20
49827;BME280;35715;51.570;6.036;2023-05-21T04:02:53;101594.88;;;14.67;77.10
49827;BME280;35715;51.570;6.036;2023-05-21T04:05:18;101587.09;;;14.67;76.67
49827;BME280;35715;51.570;6.036;2023-05-21T04:07:43;101592.97;;;14.65;76.76
49827;BME280;35715;51.570;6.036;2023-05-21T04:10:11;101593.84;;;14.65;76.66
49827;BME280;35715;51.570;6.036;2023-05-21T04:12:36;101594.59;;;14.63;76.57
49827;BME280;35715;51.570;6.036;2023-05-21T04:15:02;101603.38;;;14.65;77.02
49827;BME280;35715;51.570;6.036;2023-05-21T04:17:27;101600.66;;;14.63;76.83
49827;BME280;35715;51.570;6.036;2023-05-21T04:19:53;101598.88;;;14.62;77.03
49827;BME280;35715;51.570;6.036;2023-05-21T04:22:18;101599.25;;;14.68;77.65
49827;BME280;35715;51.570;6.036;2023-05-21T04:24:44;101597.84;;;14.73;77.53
49827;BME280;35715;51.570;6.036;2023-05-21T04:27:11;101600.75;;;14.78;77.48
49827;BME280;35715;51.570;6.036;2023-05-21T04:29:38;101594.75;;;14.79;77.50
49827;BME280;35715;51.570;6.036;2023-05-21T04:32:07;101593.75;;;14.77;77.26
49827;BME280;35715;51.570;6.036;2023-05-21T04:34:32;101595.34;;;14.75;77.11
49827;BME280;35715;51.570;6.036;2023-05-21T04:36:58;101599.84;;;14.78;77.05
49827;BME280;35715;51.570;6.036;2023-05-21T04:39:23;101602.44;;;14.78;77.03
49827;BME280;35715;51.570;6.036;2023-05-21T04:41:49;101618.13;;;14.79;77.25
49827;BME280;35715;51.570;6.036;2023-05-21T04:44:14;101614.03;;;14.83;78.07
49827;BME280;35715;51.570;6.036;2023-05-21T04:46:40;101613.59;;;14.90;77.55
49827;BME280;35715;51.570;6.036;2023-05-21T04:49:05;101617.28;;;14.94;76.99
49827;BME280;35715;51.570;6.036;2023-05-21T04:51:31;101616.69;;;14.98;77.41
49827;BME280;35715;51.570;6.036;2023-05-21T04:53:56;101614.78;;;14.95;77.03
49827;BME280;35715;51.570;6.036;2023-05-21T04:56:25;101602.56;;;14.94;76.67
49827;BME280;35715;51.570;6.036;2023-05-21T04:58:52;101613.34;;;15.00;76.91
49827;BME280;35715;51.570;6.036;2023-05-21T05:01:18;101606.28;;;14.98;77.07
49827;BME280;35715;51.570;6.036;2023-05-21T05:03:47;101604.47;;;14.97;77.38
49827;BME280;35715;51.570;6.036;2023-05-21T05:06:12;101595.81;;;14.96;77.44
49827;BME280;35715;51.570;6.036;2023-05-21T05:08:37;101605.38;;;14.97;77.23
49827;BME280;35715;51.570;6.036;2023-05-21T05:11:03;101613.56;;;15.03;77.38
49827;BME280;35715;51.570;6.036;2023-05-21T05:13:29;101614.66;;;15.07;77.04
49827;BME280;35715;51.570;6.036;2023-05-21T05:15:55;101606.06;;;15.08;77.12
49827;BME280;35715;51.570;6.036;2023-05-21T05:18:21;101602.22;;;15.16;76.98
49827;BME280;35715;51.570;6.036;2023-05-21T05:20:47;101602.31;;;15.18;77.22
49827;BME280;35715;51.570;6.036;2023-05-21T05:23:12;101596.69;;;15.25;76.97
49827;BME280;35715;51.570;6.036;2023-05-21T05:25:38;101585.38;;;15.24;76.68
49827;BME280;35715;51.570;6.036;2023-05-21T05:28:03;101596.34;;;15.34;77.07
49827;BME280;35715;51.570;6.036;2023-05-21T05:30:28;101589.53;;;15.36;77.69
49827;BME280;35715;51.570;6.036;2023-05-21T05:32:54;101591.44;;;15.38;77.44
49827;BME280;35715;51.570;6.036;2023-05-21T05:35:19;101589.53;;;15.36;77.26
49827;BME280;35715;51.570;6.036;2023-05-21T05:37:45;101589.81;;;15.40;77.71
49827;BME280;35715;51.570;6.036;2023-05-21T05:40:10;101588.19;;;15.42;77.58
49827;BME280;35715;51.570;6.036;2023-05-21T05:42:36;101591.59;;;15.41;77.44
49827;BME280;35715;51.570;6.036;2023-05-21T05:45:01;101586.41;;;15.41;77.66
49827;BME280;35715;51.570;6.036;2023-05-21T05:47:26;101589.97;;;15.43;78.40
49827;BME280;35715;51.570;6.036;2023-05-21T05:49:52;101595.28;;;15.45;78.18
49827;BME280;35715;51.570;6.036;2023-05-21T05:52:17;101590.53;;;15.53;77.93
49827;BME280;35715;51.570;6.036;2023-05-21T05:54:42;101592.34;;;15.54;77.87
49827;BME280;35715;51.570;6.036;2023-05-21T05:57:08;101590.72;;;15.56;76.87
49827;BME280;35715;51.570;6.036;2023-05-21T05:59:33;101587.22;;;15.55;78.15
49827;BME280;35715;51.570;6.036;2023-05-21T06:01:59;101590.28;;;15.63;78.41
49827;BME280;35715;51.570;6.036;2023-05-21T06:04:25;101593.22;;;15.69;78.81
49827;BME280;35715;51.570;6.036;2023-05-21T06:06:57;101595.94;;;15.71;78.16
49827;BME280;35715;51.570;6.036;2023-05-21T06:09:23;101589.84;;;15.70;77.56
49827;BME280;35715;51.570;6.036;2023-05-21T06:11:48;101596.63;;;15.68;77.37
49827;BME280;35715;51.570;6.036;2023-05-21T06:14:14;101599.69;;;15.76;77.12
49827;BME280;35715;51.570;6.036;2023-05-21T06:16:40;101597.50;;;15.82;78.24
49827;BME280;35715;51.570;6.036;2023-05-21T06:19:05;101598.47;;;15.84;76.84
49827;BME280;35715;51.570;6.036;2023-05-21T06:21:30;101599.38;;;16.00;76.96
49827;BME280;35715;51.570;6.036;2023-05-21T06:23:56;101604.38;;;16.11;76.79
49827;BME280;35715;51.570;6.036;2023-05-21T06:26:21;101595.03;;;16.15;76.08
49827;BME280;35715;51.570;6.036;2023-05-21T06:28:47;101598.06;;;16.23;76.51
49827;BME280;35715;51.570;6.036;2023-05-21T06:31:13;101596.19;;;16.35;75.98
49827;BME280;35715;51.570;6.036;2023-05-21T06:33:38;101592.19;;;16.42;74.74
49827;BME280;35715;51.570;6.036;2023-05-21T06:36:04;101599.72;;;16.52;74.37
49827;BME280;35715;51.570;6.036;2023-05-21T06:38:29;101601.13;;;16.62;74.37
49827;BME280;35715;51.570;6.036;2023-05-21T06:40:54;101595.28;;;16.66;74.19
49827;BME280;35715;51.570;6.036;2023-05-21T06:43:20;101586.16;;;16.74;74.26
49827;BME280;35715;51.570;6.036;2023-05-21T06:45:45;101590.81;;;16.80;74.89
49827;BME280;35715;51.570;6.036;2023-05-21T06:48:10;101585.41;;;16.92;73.23
49827;BME280;35715;51.570;6.036;2023-05-21T06:50:41;101590.22;;;17.00;74.50
49827;BME280;35715;51.570;6.036;2023-05-21T06:53:06;101595.03;;;16.93;73.84
49827;BME280;35715;51.570;6.036;2023-05-21T06:55:32;101590.53;;;17.07;73.12
49827;BME280;35715;51.570;6.036;2023-05-21T06:57:58;101585.16;;;17.20;72.80
49827;BME280;35715;51.570;6.036;2023-05-21T07:00:23;101585.56;;;17.28;73.02
49827;BME280;35715;51.570;6.036;2023-05-21T07:02:48;101583.75;;;17.43;71.83
49827;BME280;35715;51.570;6.036;2023-05-21T07:05:14;101579.25;;;17.75;71.36
49827;BME280;35715;51.570;6.036;2023-05-21T07:07:40;101588.41;;;18.01;69.92
49827;BME280;35715;51.570;6.036;2023-05-21T07:10:06;101590.59;;;18.10;68.96
49827;BME280;35715;51.570;6.036;2023-05-21T07:12:32;101586.03;;;18.24;70.08
49827;BME280;35715;51.570;6.036;2023-05-21T07:14:58;101581.25;;;18.15;69.85
49827;BME280;35715;51.570;6.036;2023-05-21T07:17:23;101581.03;;;18.11;69.26
49827;BME280;35715;51.570;6.036;2023-05-21T07:19:48;101581.09;;;18.30;68.61
49827;BME280;35715;51.570;6.036;2023-05-21T07:22:14;101581.47;;;18.38;68.61
49827;BME280;35715;51.570;6.036;2023-05-21T07:24:39;101580.66;;;18.39;68.40
49827;BME280;35715;51.570;6.036;2023-05-21T07:27:05;101580.50;;;18.36;68.16
49827;BME280;35715;51.570;6.036;2023-05-21T07:29:32;101584.47;;;18.27;68.83
49827;BME280;35715;51.570;6.036;2023-05-21T07:31:57;101577.00;;;18.35;67.73
49827;BME280;35715;51.570;6.036;2023-05-21T07:34:23;101573.03;;;18.43;67.88
49827;BME280;35715;51.570;6.036;2023-05-21T07:36:48;101566.78;;;18.40;68.12
49827;BME280;35715;51.570;6.036;2023-05-21T07:39:13;101564.75;;;18.72;67.82
49827;BME280;35715;51.570;6.036;2023-05-21T07:41:39;101564.44;;;18.84;67.24
49827;BME280;35715;51.570;6.036;2023-05-21T07:44:05;101560.41;;;18.90;66.85
49827;BME280;35715;51.570;6.036;2023-05-21T07:46:30;101565.50;;;18.87;66.10
49827;BME280;35715;51.570;6.036;2023-05-21T07:48:56;101566.44;;;19.09;66.02
49827;BME280;35715;51.570;6.036;2023-05-21T07:51:21;101568.09;;;19.26;65.57
49827;BME280;35715;51.570;6.036;2023-05-21T07:53:47;101567.50;;;19.53;65.36
49827;BME280;35715;51.570;6.036;2023-05-21T07:56:13;101565.13;;;19.79;65.40
49827;BME280;35715;51.570;6.036;2023-05-21T07:58:38;101572.81;;;20.18;63.73
49827;BME280;35715;51.570;6.036;2023-05-21T08:01:04;101566.25;;;20.73;62.02
49827;BME280;35715;51.570;6.036;2023-05-21T08:03:31;101565.41;;;21.22;60.80
49827;BME280;35715;51.570;6.036;2023-05-21T08:05:56;101564.78;;;21.54;58.78
49827;BME280;35715;51.570;6.036;2023-05-21T08:08:22;101566.97;;;21.67;58.29
49827;BME280;35715;51.570;6.036;2023-05-21T08:10:48;101563.84;;;21.77;59.38
49827;BME280;35715;51.570;6.036;2023-05-21T08:13:15;101562.13;;;21.79;57.25
49827;BME280;35715;51.570;6.036;2023-05-21T08:15:41;101562.63;;;21.95;57.71
49827;BME280;35715;51.570;6.036;2023-05-21T08:18:07;101567.50;;;22.10;57.30
49827;BME280;35715;51.570;6.036;2023-05-21T08:20:32;101564.84;;;22.66;57.10
49827;BME280;35715;51.570;6.036;2023-05-21T08:22:58;101559.25;;;22.84;54.71
49827;BME280;35715;51.570;6.036;2023-05-21T08:25:27;101567.19;;;23.16;54.98
49827;BME280;35715;51.570;6.036;2023-05-21T08:27:52;101571.66;;;23.18;54.14
49827;BME280;35715;51.570;6.036;2023-05-21T08:30:18;101570.50;;;23.42;53.69
49827;BME280;35715;51.570;6.036;2023-05-21T08:32:43;101563.41;;;23.73;51.75
49827;BME280;35715;51.570;6.036;2023-05-21T08:35:09;101562.50;;;23.71;51.01
49827;BME280;35715;51.570;6.036;2023-05-21T08:37:34;101559.41;;;23.54;51.07
49827;BME280;35715;51.570;6.036;2023-05-21T08:40:00;101557.47;;;23.45;53.35
49827;BME280;35715;51.570;6.036;2023-05-21T08:42:38;101552.44;;;23.54;51.81
49827;BME280;35715;51.570;6.036;2023-05-21T08:45:04;101549.03;;;23.60;51.72
49827;BME280;35715;51.570;6.036;2023-05-21T08:47:34;101550.88;;;23.63;51.54
49827;BME280;35715;51.570;6.036;2023-05-21T08:50:03;101555.81;;;23.50;52.96
49827;BME280;35715;51.570;6.036;2023-05-21T08:52:30;101552.19;;;23.45;52.31
49827;BME280;35715;51.570;6.036;2023-05-21T08:54:56;101557.38;;;23.44;53.27
49827;BME280;35715;51.570;6.036;2023-05-21T08:57:24;101549.75;;;23.53;52.05
49827;BME280;35715;51.570;6.036;2023-05-21T08:59:49;101549.63;;;23.48;52.90
49827;BME280;35715;51.570;6.036;2023-05-21T09:02:16;101555.25;;;23.62;51.69
49827;BME280;35715;51.570;6.036;2023-05-21T09:04:44;101551.84;;;23.68;51.44
49827;BME280;35715;51.570;6.036;2023-05-21T09:07:14;101539.84;;;23.79;51.24
49827;BME280;35715;51.570;6.036;2023-05-21T09:09:47;101553.34;;;23.91;50.79
49827;BME280;35715;51.570;6.036;2023-05-21T09:12:13;101535.38;;;24.12;51.90
49827;BME280;35715;51.570;6.036;2023-05-21T09:14:39;101555.63;;;24.13;50.29
49827;BME280;35715;51.570;6.036;2023-05-21T09:17:05;101548.00;;;24.26;50.77
49827;BME280;35715;51.570;6.036;2023-05-21T09:19:31;101545.53;;;24.34;51.22
49827;BME280;35715;51.570;6.036;2023-05-21T09:22:02;101543.88;;;24.38;49.58
49827;BME280;35715;51.570;6.036;2023-05-21T09:24:32;101540.91;;;24.62;50.19
49827;BME280;35715;51.570;6.036;2023-05-21T09:26:57;101533.34;;;24.79;50.71
49827;BME280;35715;51.570;6.036;2023-05-21T09:29:26;101536.22;;;24.91;49.52
49827;BME280;35715;51.570;6.036;2023-05-21T09:31:51;101538.75;;;25.31;49.41
49827;BME280;35715;51.570;6.036;2023-05-21T09:34:19;101534.78;;;25.07;48.74
49827;BME280;35715;51.570;6.036;2023-05-21T09:36:44;101528.00;;;25.22;48.86
49827;BME280;35715;51.570;6.036;2023-05-21T09:39:11;101533.22;;;25.67;47.42
49827;BME280;35715;51.570;6.036;2023-05-21T09:41:41;101532.78;;;25.96;47.87
49827;BME280;35715;51.570;6.036;2023-05-21T09:44:09;101529.81;;;25.75;46.94
49827;BME280;35715;51.570;6.036;2023-05-21T09:46:38;101520.09;;;25.74;48.12
49827;BME280;35715;51.570;6.036;2023-05-21T09:49:04;101521.72;;;25.64;46.93
49827;BME280;35715;51.570;6.036;2023-05-21T09:51:29;101517.34;;;25.67;46.86
49827;BME280;35715;51.570;6.036;2023-05-21T09:53:56;101516.81;;;25.90;47.20
49827;BME280;35715;51.570;6.036;2023-05-21T09:56:24;101511.97;;;26.16;46.54
49827;BME280;35715;51.570;6.036;2023-05-21T09:58:54;101515.44;;;26.14;45.98
49827;BME280;35715;51.570;6.036;2023-05-21T10:01:22;101519.31;;;26.37;47.14
49827;BME280;35715;51.570;6.036;2023-05-21T10:03:57;101511.44;;;26.44;45.61
49827;BME280;35715;51.570;6.036;2023-05-21T10:06:29;101515.31;;;26.03;46.82
49827;BME280;35715;51.570;6.036;2023-05-21T10:09:07;101516.25;;;26.08;46.33
49827;BME280;35715;51.570;6.036;2023-05-21T10:11:35;101510.22;;;26.18;45.85
49827;BME280;35715;51.570;6.036;2023-05-21T10:14:06;101508.22;;;26.02;46.69
49827;BME280;35715;51.570;6.036;2023-05-21T10:16:34;101508.09;;;25.94;47.62
49827;BME280;35715;51.570;6.036;2023-05-21T10:19:00;101501.38;;;25.60;47.13
49827;BME280;35715;51.570;6.036;2023-05-21T10:21:25;101506.78;;;25.17;47.99
49827;BME280;35715;51.570;6.036;2023-05-21T10:23:52;101500.38;;;24.58;47.61
49827;BME280;35715;51.570;6.036;2023-05-21T10:26:20;101502.84;;;24.52;49.60
49827;BME280;35715;51.570;6.036;2023-05-21T10:28:48;101500.19;;;24.51;48.84
49827;BME280;35715;51.570;6.036;2023-05-21T10:31:14;101499.94;;;24.81;49.68
49827;BME280;35715;51.570;6.036;2023-05-21T10:33:40;101499.53;;;24.59;48.45
49827;BME280;35715;51.570;6.036;2023-05-21T10:36:07;101492.91;;;24.80;50.40
49827;BME280;35715;51.570;6.036;2023-05-21T10:38:32;101497.00;;;25.11;48.58
49827;BME280;35715;51.570;6.036;2023-05-21T10:40:58;101495.19;;;25.58;48.38
49827;BME280;35715;51.570;6.036;2023-05-21T10:51:53;101489.22;;;27.04;45.63
49827;BME280;35715;51.570;6.036;2023-05-21T11:00:10;101487.78;;;26.58;45.54
49827;BME280;35715;51.570;6.036;2023-05-21T11:02:36;101490.44;;;26.58;47.05
49827;BME280;35715;51.570;6.036;2023-05-21T11:05:02;101484.66;;;26.89;46.45
49827;BME280;35715;51.570;6.036;2023-05-21T11:07:56;101488.28;;;26.99;43.63
49827;BME280;35715;51.570;6.036;2023-05-21T11:10:29;101476.56;;;26.74;45.85
49827;BME280;35715;51.570;6.036;2023-05-21T11:13:13;101477.94;;;26.46;44.92
49827;BME280;35715;51.570;6.036;2023-05-21T11:18:47;101463.53;;;26.24;45.92
49827;BME280;35715;51.570;6.036;2023-05-21T11:26:14;101456.13;;;27.54;45.43
49827;BME280;35715;51.570;6.036;2023-05-21T11:28:40;101454.72;;;28.07;43.96
49827;BME280;35715;51.570;6.036;2023-05-21T11:31:24;101454.00;;;28.53;42.87
49827;BME280;35715;51.570;6.036;2023-05-21T11:36:44;101443.28;;;28.22;41.81
49827;BME280;35715;51.570;6.036;2023-05-21T11:39:18;101440.56;;;28.14;44.18
49827;BME280;35715;51.570;6.036;2023-05-21T11:42:00;101436.25;;;28.35;41.83
49827;BME280;35715;51.570;6.036;2023-05-21T11:44:43;101425.34;;;27.86;41.36
49827;BME280;35715;51.570;6.036;2023-05-21T11:47:10;101430.47;;;27.53;43.76
49827;BME280;35715;51.570;6.036;2023-05-21T11:49:37;101433.91;;;27.41;43.74
49827;BME280;35715;51.570;6.036;2023-05-21T11:52:04;101436.91;;;27.91;42.78
49827;BME280;35715;51.570;6.036;2023-05-21T11:54:30;101436.09;;;28.01;42.98
49827;BME280;35715;51.570;6.036;2023-05-21T11:56:58;101430.03;;;28.27;43.30
49827;BME280;35715;51.570;6.036;2023-05-21T11:59:25;101430.06;;;28.35;43.35
49827;BME280;35715;51.570;6.036;2023-05-21T12:01:50;101426.50;;;28.32;44.09
49827;BME280;35715;51.570;6.036;2023-05-21T12:04:15;101421.16;;;28.25;43.24
49827;BME280;35715;51.570;6.036;2023-05-21T12:06:44;101417.66;;;28.38;43.64
49827;BME280;35715;51.570;6.036;2023-05-21T12:09:10;101419.56;;;28.73;42.74
49827;BME280;35715;51.570;6.036;2023-05-21T12:11:40;101423.94;;;28.56;41.42
49827;BME280;35715;51.570;6.036;2023-05-21T12:14:11;101420.38;;;28.57;42.56
49827;BME280;35715;51.570;6.036;2023-05-21T12:16:38;101416.88;;;28.59;42.13
49827;BME280;35715;51.570;6.036;2023-05-21T12:19:04;101407.03;;;28.30;42.27
49827;BME280;35715;51.570;6.036;2023-05-21T12:21:30;101415.88;;;28.34;43.11
49827;BME280;35715;51.570;6.036;2023-05-21T12:23:57;101402.56;;;28.20;43.09
49827;BME280;35715;51.570;6.036;2023-05-21T12:26:24;101403.31;;;27.93;43.37
49827;BME280;35715;51.570;6.036;2023-05-21T12:28:53;101403.19;;;27.71;44.43
49827;BME280;35715;51.570;6.036;2023-05-21T12:31:20;101407.66;;;27.78;44.84
49827;BME280;35715;51.570;6.036;2023-05-21T12:33:52;101400.63;;;27.85;44.76
49827;BME280;35715;51.570;6.036;2023-05-21T12:36:30;101393.50;;;27.76;44.39
49827;BME280;35715;51.570;6.036;2023-05-21T12:38:58;101404.00;;;27.61;44.56
49827;BME280;35715;51.570;6.036;2023-05-21T12:41:24;101393.44;;;27.67;45.68
49827;BME280;35715;51.570;6.036;2023-05-21T12:43:50;101402.09;;;27.40;45.42
49827;BME280;35715;51.570;6.036;2023-05-21T12:46:16;101396.56;;;27.09;45.03
49827;BME280;35715;51.570;6.036;2023-05-21T12:48:51;101393.81;;;26.98;45.12
49827;BME280;35715;51.570;6.036;2023-05-21T12:51:17;101395.59;;;27.02;46.03
49827;BME280;35715;51.570;6.036;2023-05-21T12:53:42;101394.63;;;26.89;45.90
49827;BME280;35715;51.570;6.036;2023-05-21T12:56:11;101394.59;;;26.86;46.82
49827;BME280;35715;51.570;6.036;2023-05-21T12:58:37;101398.13;;;26.87;47.25
49827;BME280;35715;51.570;6.036;2023-05-21T13:01:06;101403.28;;;26.73;47.97
49827;BME280;35715;51.570;6.036;2023-05-21T13:03:33;101397.22;;;26.86;46.60
49827;BME280;35715;51.570;6.036;2023-05-21T13:05:59;101391.81;;;26.71;46.88
49827;BME280;35715;51.570;6.036;2023-05-21T13:08:25;101389.16;;;26.71;47.63
49827;BME280;35715;51.570;6.036;2023-05-21T13:10:50;101386.25;;;26.52;46.70
49827;BME280;35715;51.570;6.036;2023-05-21T13:13:17;101393.69;;;26.06;47.57
49827;BME280;35715;51.570;6.036;2023-05-21T13:15:42;101392.50;;;25.85;48.43